createdAt,value
2018-10-16T00:01:37.863Z,29.00
2018-10-16T00:04:07.124Z,26.07
2018-10-16T00:06:35.751Z,28.10
2018-10-16T00:09:06.477Z,26.47
2018-10-16T00:11:35.247Z,25.93
2018-10-16T00:14:03.919Z,27.37
2018-10-16T00:16:32.639Z,25.87
2018-10-16T00:19:01.287Z,29.30
2018-10-16T00:21:29.920Z,24.67
2018-10-16T00:23:58.609Z,25.50
2018-10-16T00:26:27.256Z,27.67
2018-10-16T00:28:55.914Z,27.50
2018-10-16T00:31:24.571Z,28.27
2018-10-16T00:33:53.231Z,25.83
2018-10-16T00:36:21.911Z,26.50
2018-10-16T00:38:50.549Z,25.97
2018-10-16T00:41:19.192Z,25.70
2018-10-16T00:43:47.851Z,25.17
2018-10-16T00:46:16.484Z,25.93
2018-10-16T00:48:45.171Z,26.13
2018-10-16T00:51:13.815Z,22.20
2018-10-16T00:53:42.471Z,23.40
2018-10-16T00:56:11.113Z,21.87
2018-10-16T00:58:39.775Z,22.70
2018-10-16T01:01:08.519Z,22.50
2018-10-16T01:03:37.201Z,21.87
2018-10-16T01:06:05.899Z,21.50
2018-10-16T01:08:34.528Z,22.57
2018-10-16T01:11:03.324Z,22.63
2018-10-16T01:13:31.992Z,22.57
2018-10-16T01:16:00.667Z,21.60
2018-10-16T01:18:29.292Z,20.50
2018-10-16T01:20:57.927Z,20.57
2018-10-16T01:23:26.560Z,23.57
2018-10-16T01:25:55.205Z,20.37
2018-10-16T01:28:23.863Z,19.10
2018-10-16T01:30:52.552Z,19.70
2018-10-16T01:33:21.240Z,19.80
2018-10-16T01:35:49.888Z,19.47
2018-10-16T01:38:18.572Z,21.60
2018-10-16T01:40:47.208Z,19.43
2018-10-16T01:43:15.944Z,19.67
2018-10-16T01:45:44.584Z,20.00
2018-10-16T01:48:13.233Z,25.00
2018-10-16T01:50:41.868Z,19.03
2018-10-16T01:53:10.521Z,19.67
2018-10-16T01:55:39.189Z,24.23
2018-10-16T01:58:07.826Z,19.37
2018-10-16T02:00:36.508Z,20.80
2018-10-16T02:03:05.221Z,20.83
2018-10-16T02:05:33.857Z,21.30
2018-10-16T02:08:02.487Z,21.63
2018-10-16T02:10:31.136Z,20.03
2018-10-16T02:12:59.800Z,21.80
2018-10-16T02:15:28.500Z,22.10
2018-10-16T02:17:57.201Z,23.87
2018-10-16T02:20:25.880Z,22.17
2018-10-16T02:22:54.540Z,22.07
2018-10-16T02:25:23.246Z,23.00
2018-10-16T02:27:51.904Z,23.07
2018-10-16T02:30:20.569Z,21.40
2018-10-16T02:32:49.212Z,22.13
2018-10-16T02:35:17.852Z,23.10
2018-10-16T02:37:46.525Z,24.27
2018-10-16T02:40:15.165Z,23.13
2018-10-16T02:42:43.810Z,22.20
2018-10-16T02:45:12.456Z,24.20
2018-10-16T02:47:41.152Z,21.73
2018-10-16T02:50:10.910Z,25.47
2018-10-16T02:52:39.740Z,24.63
2018-10-16T02:55:09.678Z,23.27
2018-10-16T02:57:38.336Z,23.80
2018-10-16T03:00:07.320Z,23.73
2018-10-16T03:02:36.001Z,23.63
2018-10-16T03:05:04.828Z,23.70
2018-10-16T03:07:33.503Z,22.33
2018-10-16T03:10:02.176Z,23.87
2018-10-16T03:12:30.955Z,24.00
2018-10-16T03:14:59.605Z,24.70
2018-10-16T03:17:28.267Z,25.40
2018-10-16T03:19:56.896Z,26.67
2018-10-16T03:22:25.559Z,24.50
2018-10-16T03:24:54.236Z,24.17
2018-10-16T03:27:22.860Z,23.57
2018-10-16T03:29:51.518Z,23.87
2018-10-16T03:32:20.192Z,24.77
2018-10-16T03:34:48.872Z,22.43
2018-10-16T03:37:17.522Z,25.23
2018-10-16T03:39:46.189Z,23.93
2018-10-16T03:42:14.815Z,22.63
2018-10-16T03:44:43.472Z,23.67
2018-10-16T03:47:12.116Z,23.77
2018-10-16T03:49:40.771Z,22.67
2018-10-16T03:52:09.451Z,21.50
2018-10-16T03:54:38.120Z,22.17
2018-10-16T03:57:06.925Z,23.20
2018-10-16T03:59:35.618Z,22.50
2018-10-16T04:02:04.556Z,21.90
2018-10-16T04:04:33.229Z,21.53
2018-10-16T04:07:01.880Z,21.27
2018-10-16T04:09:30.548Z,21.43
2018-10-16T04:11:59.173Z,23.30
2018-10-16T04:14:27.887Z,22.50
2018-10-16T04:16:56.597Z,22.87
2018-10-16T04:19:25.304Z,22.40
2018-10-16T04:21:53.987Z,22.80
2018-10-16T04:24:22.635Z,20.63
2018-10-16T04:26:51.304Z,22.23
2018-10-16T04:29:19.993Z,21.83
2018-10-16T04:31:48.660Z,21.27
2018-10-16T04:34:17.256Z,21.07
2018-10-16T04:36:45.863Z,22.67
2018-10-16T04:39:14.915Z,22.80
2018-10-16T04:41:43.700Z,22.50
2018-10-16T04:44:12.302Z,22.37
2018-10-16T04:46:40.961Z,22.30
2018-10-16T04:49:09.585Z,23.27
2018-10-16T04:51:38.245Z,27.23
2018-10-16T04:54:06.860Z,21.83
2018-10-16T04:56:35.519Z,22.97
2018-10-16T04:59:04.212Z,25.03
2018-10-16T05:01:32.847Z,26.07
2018-10-16T05:04:01.596Z,23.47
2018-10-16T05:06:30.212Z,29.13
2018-10-16T05:08:58.899Z,25.57
2018-10-16T05:11:27.744Z,24.17
2018-10-16T05:13:56.364Z,23.90
2018-10-16T05:16:24.985Z,22.90
2018-10-16T05:18:53.656Z,22.67
2018-10-16T05:21:22.288Z,23.87
2018-10-16T05:23:50.944Z,22.50
2018-10-16T05:26:23.675Z,22.77
2018-10-16T05:28:52.288Z,21.80
2018-10-16T05:31:20.980Z,23.00
2018-10-16T05:33:49.585Z,20.77
2018-10-16T05:36:18.216Z,21.50
2018-10-16T05:38:46.882Z,19.77
2018-10-16T05:41:15.536Z,23.00
2018-10-16T05:43:44.197Z,21.23
2018-10-16T05:46:12.855Z,21.73
2018-10-16T05:48:41.484Z,21.03
2018-10-16T05:51:10.601Z,21.60
2018-10-16T05:53:39.347Z,19.87
2018-10-16T05:56:07.981Z,20.57
2018-10-16T05:58:36.621Z,22.23
2018-10-16T06:01:05.564Z,20.57
2018-10-16T06:03:34.299Z,20.73
2018-10-16T06:06:02.922Z,22.10
2018-10-16T06:08:31.555Z,20.83
2018-10-16T06:11:00.313Z,23.33
2018-10-16T06:13:28.872Z,21.00
2018-10-16T06:15:57.576Z,23.07
2018-10-16T06:18:26.176Z,21.20
2018-10-16T06:20:54.807Z,22.40
2018-10-16T06:23:23.412Z,21.13
2018-10-16T06:25:52.011Z,21.33
2018-10-16T06:28:22.880Z,21.00
2018-10-16T06:30:51.603Z,21.07
2018-10-16T06:33:34.978Z,22.13
2018-10-16T06:36:03.618Z,21.70
2018-10-16T06:38:32.244Z,21.27
2018-10-16T06:41:01.239Z,23.30
2018-10-16T06:43:29.716Z,21.40
2018-10-16T06:45:58.372Z,22.20
2018-10-16T06:48:27.336Z,21.93
2018-10-16T06:50:55.726Z,23.03
2018-10-16T06:53:24.487Z,22.30
2018-10-16T06:55:53.143Z,23.53
2018-10-16T06:58:21.763Z,24.23
2018-10-16T07:00:50.390Z,23.30
2018-10-16T07:03:19.125Z,35.50
2018-10-16T07:05:47.777Z,21.87
2018-10-16T07:08:16.451Z,23.83
2018-10-16T07:10:45.092Z,23.87
2018-10-16T07:13:13.720Z,24.23
2018-10-16T07:15:42.312Z,22.90
2018-10-16T07:18:10.966Z,23.10
2018-10-16T07:20:39.599Z,22.73
2018-10-16T07:23:08.206Z,23.20
2018-10-16T07:25:46.109Z,23.87
2018-10-16T07:28:14.844Z,25.33
2018-10-16T07:30:44.106Z,24.83
2018-10-16T07:33:13.272Z,24.33
2018-10-16T07:35:43.367Z,24.67
2018-10-16T07:38:12.335Z,23.97
2018-10-16T07:40:40.975Z,23.70
2018-10-16T07:43:09.622Z,24.10
2018-10-16T07:45:38.292Z,24.47
2018-10-16T07:48:07.649Z,25.07
2018-10-16T07:50:36.432Z,26.23
2018-10-16T07:53:05.383Z,22.93
2018-10-16T07:55:34.047Z,26.10
2018-10-16T07:58:02.876Z,24.90
2018-10-16T08:00:31.512Z,24.40
2018-10-16T08:03:00.208Z,23.77
2018-10-16T08:05:28.917Z,24.20
2018-10-16T08:07:57.548Z,22.47
2018-10-16T08:10:26.229Z,24.50
2018-10-16T08:12:54.856Z,25.13
2018-10-16T08:15:23.529Z,24.63
2018-10-16T08:17:52.187Z,24.13
2018-10-16T08:20:20.889Z,25.13
2018-10-16T08:22:49.523Z,24.80
2018-10-16T08:25:18.201Z,24.10
2018-10-16T08:27:46.873Z,23.80
2018-10-16T08:30:15.658Z,23.93
2018-10-16T08:32:44.296Z,24.60
2018-10-16T08:35:12.916Z,23.47
2018-10-16T08:39:48.855Z,24.13
2018-10-16T08:43:26.505Z,26.73
2018-10-16T08:46:06.119Z,24.50
2018-10-16T08:48:45.792Z,24.63
2018-10-16T08:51:25.595Z,24.83
2018-10-16T08:53:54.432Z,24.97
2018-10-16T08:56:23.056Z,25.93
2018-10-16T08:58:51.696Z,24.43
2018-10-16T09:01:20.393Z,25.70
2018-10-16T09:03:49.021Z,24.87
2018-10-16T09:06:17.664Z,26.27
2018-10-16T09:08:46.332Z,26.23
2018-10-16T09:11:15.028Z,26.37
2018-10-16T09:13:43.692Z,24.20
2018-10-16T09:16:12.325Z,24.37
2018-10-16T09:18:41.365Z,24.33
2018-10-16T09:21:10.033Z,23.23
2018-10-16T09:23:38.664Z,23.60
2018-10-16T09:26:07.358Z,24.47
2018-10-16T09:28:36.049Z,24.63
2018-10-16T09:31:04.805Z,24.43
2018-10-16T09:33:33.471Z,23.50
2018-10-16T09:36:02.125Z,26.17
2018-10-16T09:38:30.793Z,23.80
2018-10-16T09:40:59.484Z,23.90
2018-10-16T09:43:29.441Z,25.33
2018-10-16T09:45:58.277Z,23.73
2018-10-16T09:48:26.941Z,24.90
2018-10-16T09:50:55.672Z,25.60
2018-10-16T09:53:24.576Z,27.03
2018-10-16T09:55:53.183Z,24.13
2018-10-16T09:58:21.824Z,22.43
2018-10-16T10:00:55.959Z,24.13
2018-10-16T10:03:24.574Z,23.30
2018-10-16T10:05:53.236Z,24.20
2018-10-16T10:08:21.972Z,23.27
2018-10-16T10:10:50.638Z,24.13
2018-10-16T10:13:19.296Z,23.37
2018-10-16T10:15:48.020Z,24.13
2018-10-16T10:18:16.680Z,25.43
2018-10-16T10:20:45.343Z,24.87
2018-10-16T10:23:14.025Z,23.20
2018-10-16T10:25:42.657Z,24.90
2018-10-16T10:28:11.323Z,26.00
2018-10-16T10:30:39.955Z,24.87
2018-10-16T10:33:08.593Z,24.00
2018-10-16T10:35:37.305Z,24.23
2018-10-16T10:38:05.924Z,24.33
2018-10-16T10:40:34.569Z,24.30
2018-10-16T10:43:03.252Z,25.83
2018-10-16T10:45:31.901Z,25.27
2018-10-16T10:48:00.537Z,25.53
2018-10-16T10:50:29.416Z,26.47
2018-10-16T10:52:57.843Z,27.67
2018-10-16T10:55:26.480Z,25.60
2018-10-16T10:57:55.156Z,24.23
2018-10-16T11:00:23.802Z,25.43
2018-10-16T11:02:52.556Z,23.93
2018-10-16T11:05:21.186Z,22.90
2018-10-16T11:07:49.807Z,23.40
2018-10-16T11:10:18.419Z,25.77
2018-10-16T11:12:47.093Z,24.40
2018-10-16T11:15:15.849Z,25.23
2018-10-16T11:17:44.445Z,22.07
2018-10-16T11:20:13.608Z,22.80
2018-10-16T11:22:42.491Z,24.27
2018-10-16T11:25:11.601Z,22.53
2018-10-16T11:27:40.255Z,23.73
2018-10-16T11:30:11.976Z,22.03
2018-10-16T11:32:40.939Z,24.23
2018-10-16T11:35:10.712Z,22.50
2018-10-16T11:37:39.724Z,22.27
2018-10-16T11:40:08.840Z,24.50
2018-10-16T11:42:37.491Z,24.53
2018-10-16T11:45:07.097Z,25.43
2018-10-16T11:47:36.315Z,23.53
2018-10-16T11:50:05.655Z,24.13
2018-10-16T11:52:34.307Z,24.47
2018-10-16T11:55:03.023Z,25.80
2018-10-16T11:57:31.643Z,23.67
2018-10-16T12:00:00.266Z,25.77
2018-10-16T12:02:29.049Z,25.70
2018-10-16T12:04:57.678Z,25.03
2018-10-16T12:07:26.366Z,22.30
2018-10-16T12:09:55.047Z,24.17
2018-10-16T12:12:23.673Z,23.33
2018-10-16T12:14:52.308Z,23.40
2018-10-16T12:17:30.769Z,25.03
2018-10-16T12:20:06.497Z,24.77
2018-10-16T12:22:35.085Z,25.33
2018-10-16T12:25:04.128Z,23.37
2018-10-16T12:27:32.853Z,23.67
2018-10-16T12:30:01.505Z,23.07
2018-10-16T12:32:30.132Z,24.67
2018-10-16T12:34:58.870Z,23.23
2018-10-16T12:37:27.559Z,24.70
2018-10-16T12:39:56.273Z,23.00
2018-10-16T12:42:24.954Z,21.67
2018-10-16T12:44:53.646Z,21.80
2018-10-16T12:47:22.300Z,22.37
2018-10-16T12:49:54.137Z,20.80
2018-10-16T12:52:22.844Z,21.50
2018-10-16T12:54:51.472Z,22.63
2018-10-16T12:57:20.240Z,21.50
2018-10-16T12:59:48.854Z,20.87
2018-10-16T13:02:17.488Z,21.77
2018-10-16T13:04:46.197Z,22.10
2018-10-16T13:07:22.293Z,20.10
2018-10-16T13:09:51.054Z,21.57
2018-10-16T13:12:19.698Z,20.70
2018-10-16T13:14:48.357Z,21.40
2018-10-16T13:17:17.038Z,21.37
2018-10-16T13:19:45.690Z,20.13
2018-10-16T13:22:14.344Z,21.30
2018-10-16T13:24:43.028Z,21.63
2018-10-16T13:27:11.660Z,22.00
2018-10-16T13:29:40.418Z,20.33
2018-10-16T13:32:09.050Z,18.53
2018-10-16T13:34:37.645Z,20.90
2018-10-16T13:37:06.267Z,20.23
2018-10-16T13:39:34.916Z,19.10
2018-10-16T13:42:03.608Z,21.60
2018-10-16T13:44:32.242Z,21.30
2018-10-16T13:47:00.878Z,20.40
2018-10-16T13:49:29.515Z,19.60
2018-10-16T13:51:58.174Z,19.20
2018-10-16T13:54:26.841Z,17.77
2018-10-16T13:56:55.490Z,19.10
2018-10-16T13:59:24.149Z,19.57
2018-10-16T14:01:52.804Z,17.77
2018-10-16T14:04:21.510Z,18.43
2018-10-16T14:06:50.152Z,19.13
2018-10-16T14:09:18.812Z,17.90
2018-10-16T14:11:47.454Z,17.63
2018-10-16T14:14:16.187Z,18.03
2018-10-16T14:16:44.804Z,18.13
2018-10-16T14:19:13.445Z,18.80
2018-10-16T14:21:42.116Z,17.27
2018-10-16T14:24:10.767Z,18.43
2018-10-16T14:26:39.496Z,16.77
2018-10-16T14:29:08.109Z,18.40
2018-10-16T14:31:36.763Z,17.90
2018-10-16T14:34:05.423Z,17.43
2018-10-16T14:36:34.055Z,18.37
2018-10-16T14:39:02.923Z,18.30
2018-10-16T14:41:31.611Z,18.20
2018-10-16T14:44:00.312Z,18.13
2018-10-16T14:46:28.956Z,18.53
2018-10-16T14:48:57.590Z,18.67
2018-10-16T14:51:26.264Z,20.53
2018-10-16T14:53:54.893Z,18.57
2018-10-16T14:56:23.716Z,20.03
2018-10-16T14:58:52.492Z,20.23
2018-10-16T15:01:21.160Z,24.90
2018-10-16T15:03:49.828Z,26.10
2018-10-16T15:06:18.489Z,24.83
2018-10-16T15:08:47.196Z,24.67
2018-10-16T15:11:15.837Z,29.13
2018-10-16T15:13:44.671Z,33.50
2018-10-16T15:16:14.225Z,34.87
2018-10-16T15:18:42.860Z,32.23
2018-10-16T15:21:11.493Z,29.03
2018-10-16T15:23:40.166Z,28.07
2018-10-16T15:26:08.904Z,26.10
2018-10-16T15:28:37.517Z,23.83
2018-10-16T15:31:06.166Z,22.57
2018-10-16T15:33:34.792Z,23.40
2018-10-16T15:36:03.522Z,20.80
2018-10-16T15:38:32.136Z,23.03
2018-10-16T15:41:00.784Z,21.30
2018-10-16T15:43:29.432Z,19.83
2018-10-16T15:45:58.089Z,18.00
2018-10-16T15:48:26.736Z,16.37
2018-10-16T15:50:55.428Z,15.47
2018-10-16T15:53:24.073Z,17.07
2018-10-16T15:55:52.788Z,16.40
2018-10-16T15:58:21.433Z,16.40
2018-10-16T16:00:50.076Z,17.00
2018-10-16T16:03:18.708Z,19.23
2018-10-16T16:05:47.956Z,16.33
2018-10-16T16:08:16.585Z,16.37
2018-10-16T16:10:45.233Z,17.00
2018-10-16T16:13:13.889Z,15.77
2018-10-16T16:15:42.520Z,17.03
2018-10-16T16:18:11.393Z,16.93
2018-10-16T16:20:39.954Z,15.53
2018-10-16T16:23:08.648Z,15.87
2018-10-16T16:25:37.330Z,16.83
2018-10-16T16:28:06.074Z,15.97
2018-10-16T16:30:34.676Z,16.63
2018-10-16T16:33:03.308Z,16.03
2018-10-16T16:35:31.935Z,16.57
2018-10-16T16:38:00.717Z,15.43
2018-10-16T16:40:29.293Z,16.00
2018-10-16T16:42:57.939Z,15.97
2018-10-16T16:45:26.577Z,15.50
2018-10-16T16:47:55.191Z,15.80
2018-10-16T16:50:23.863Z,16.83
2018-10-16T16:52:52.517Z,16.33
2018-10-16T16:55:21.163Z,16.90
2018-10-16T16:57:49.804Z,14.57
2018-10-16T17:00:18.426Z,14.93
2018-10-16T17:02:47.113Z,15.80
2018-10-16T17:05:15.770Z,14.90
2018-10-16T17:07:44.825Z,15.50
2018-10-16T17:10:13.530Z,15.33
2018-10-16T17:12:42.187Z,15.33
2018-10-16T17:15:15.506Z,16.07
2018-10-16T17:17:45.027Z,15.30
2018-10-16T17:20:13.653Z,16.10
2018-10-16T17:22:42.354Z,16.13
2018-10-16T17:25:12.770Z,16.53
2018-10-16T17:27:41.560Z,17.83
2018-10-16T17:30:13.126Z,18.07
2018-10-16T17:32:42.424Z,19.20
2018-10-16T17:35:11.741Z,16.20
2018-10-16T17:37:41.140Z,16.90
2018-10-16T17:40:11.737Z,18.90
2018-10-16T17:42:40.452Z,21.30
2018-10-16T17:45:11.139Z,19.17
2018-10-16T17:47:39.855Z,16.87
2018-10-16T17:50:11.096Z,17.10
2018-10-16T17:52:40.099Z,16.90
2018-10-16T17:55:09.549Z,17.73
2018-10-16T17:57:38.380Z,21.53
2018-10-16T18:00:09.644Z,17.53
2018-10-16T18:02:38.320Z,16.87
2018-10-16T18:05:07.048Z,17.67
2018-10-16T18:07:35.731Z,17.73
2018-10-16T18:10:04.537Z,16.90
2018-10-16T18:12:33.196Z,17.07
2018-10-16T18:15:01.887Z,16.80
2018-10-16T18:17:30.515Z,31.53
2018-10-16T18:19:59.179Z,17.23
2018-10-16T18:22:27.804Z,17.57
2018-10-16T18:24:56.415Z,17.23
2018-10-16T18:27:25.069Z,17.43
2018-10-16T18:29:57.758Z,17.47
2018-10-16T18:32:29.963Z,18.67
2018-10-16T18:35:02.240Z,18.63
2018-10-16T18:37:40.429Z,18.67
2018-10-16T18:40:10.364Z,20.27
2018-10-16T18:42:39.472Z,19.17
2018-10-16T18:45:13.168Z,21.07
2018-10-16T18:47:43.019Z,17.20
2018-10-16T18:50:14.320Z,18.07
2018-10-16T18:52:43.807Z,18.13
2018-10-16T18:55:13.659Z,18.70
2018-10-16T18:57:42.411Z,21.67
2018-10-16T19:00:13.196Z,23.13
2018-10-16T19:02:42.393Z,18.80
2018-10-16T19:05:11.989Z,18.90
2018-10-16T19:07:40.949Z,20.83
2018-10-16T19:10:11.084Z,19.93
2018-10-16T19:12:41.333Z,17.37
2018-10-16T19:15:23.555Z,17.50
2018-10-16T19:18:05.098Z,17.60
2018-10-16T19:20:33.801Z,20.63
2018-10-16T19:23:05.613Z,18.87
2018-10-16T19:25:47.580Z,18.63
2018-10-16T19:28:33.415Z,19.40
2018-10-16T19:31:22.323Z,17.67
2018-10-16T19:33:51.388Z,17.03
2018-10-16T19:36:40.489Z,17.83
2018-10-16T19:39:31.066Z,21.22
2018-10-16T19:42:01.422Z,17.93
2018-10-16T19:44:30.159Z,17.13
2018-10-16T19:46:59.825Z,19.80
2018-10-16T19:49:38.388Z,16.90
2018-10-16T19:52:35.934Z,18.47
2018-10-16T19:55:05.138Z,15.87
2018-10-16T20:00:34.950Z,17.17
2018-10-16T20:03:03.843Z,16.20
2018-10-16T20:05:32.610Z,16.57
2018-10-16T20:08:01.524Z,17.73
2018-10-16T20:10:32.262Z,16.30
2018-10-16T20:13:01.532Z,16.77
2018-10-16T20:15:30.194Z,26.00
2018-10-16T20:17:59.721Z,19.17
2018-10-16T20:20:28.618Z,16.77
2018-10-16T20:22:57.470Z,18.23
2018-10-16T20:25:49.638Z,15.40
2018-10-16T20:41:26.280Z,19.37
2018-10-16T20:43:55.036Z,15.77
2018-10-16T20:46:24.443Z,17.90
2018-10-16T20:48:53.235Z,17.17
2018-10-16T20:51:21.978Z,16.00
2018-10-16T20:53:50.818Z,19.40
2018-10-16T20:56:19.651Z,18.03
2018-10-16T20:58:48.419Z,17.37
2018-10-16T21:01:17.413Z,20.87
2018-10-16T21:03:49.230Z,16.10
2018-10-16T21:06:18.247Z,18.13
2018-10-16T21:08:46.883Z,15.87
2018-10-16T21:11:15.646Z,16.53
2018-10-16T21:13:44.833Z,15.87
2018-10-16T21:16:13.556Z,14.37
2018-10-16T21:18:42.297Z,16.97
2018-10-16T21:21:11.088Z,17.80
2018-10-16T21:23:39.815Z,19.20
2018-10-16T21:26:09.117Z,17.90
2018-10-16T21:28:37.907Z,17.10
2018-10-16T21:31:06.753Z,17.07
2018-10-16T21:33:35.568Z,19.17
2018-10-16T21:36:07.071Z,16.97
2018-10-16T21:38:35.813Z,20.93
2018-10-16T21:41:04.553Z,22.23
2018-10-16T21:43:33.225Z,22.70
2018-10-16T21:46:01.929Z,21.20
2018-10-16T21:48:30.571Z,25.83
2018-10-16T21:50:59.216Z,27.67
2018-10-16T21:53:27.848Z,26.67
2018-10-16T21:55:56.537Z,29.00
2018-10-16T21:58:25.229Z,31.10
2018-10-16T22:00:59.504Z,25.43
2018-10-16T22:03:28.373Z,27.97
2018-10-16T22:05:57.032Z,25.70
2018-10-16T22:08:25.688Z,29.00
2018-10-16T22:10:54.411Z,22.77
2018-10-16T22:13:23.060Z,29.13
2018-10-16T22:15:51.684Z,23.87
2018-10-16T22:18:20.335Z,22.73
2018-10-16T22:20:48.980Z,23.50
2018-10-16T22:23:17.644Z,24.83
2018-10-16T22:25:46.320Z,21.47
2018-10-16T22:28:15.036Z,25.07
2018-10-16T22:30:43.663Z,26.50
2018-10-16T22:33:12.829Z,22.13
2018-10-16T22:35:41.492Z,21.10
2018-10-16T22:38:10.828Z,24.57
2018-10-16T22:40:41.234Z,24.60
2018-10-16T22:43:10.552Z,21.50
2018-10-16T22:45:39.207Z,22.67
2018-10-16T22:48:07.896Z,23.97
2018-10-16T22:50:36.547Z,23.53
2018-10-16T22:53:05.292Z,31.57
2018-10-16T22:55:33.960Z,21.10
2018-10-16T22:58:03.084Z,23.17
2018-10-16T23:00:31.724Z,24.70
2018-10-16T23:03:01.808Z,22.37
2018-10-16T23:05:30.525Z,23.03
2018-10-16T23:07:59.224Z,22.80
2018-10-16T23:10:27.966Z,23.07
2018-10-16T23:12:59.695Z,19.00
2018-10-16T23:15:29.320Z,23.23
2018-10-16T23:17:57.980Z,18.60
2018-10-16T23:20:26.767Z,20.77
2018-10-16T23:22:55.737Z,24.40
2018-10-16T23:25:24.464Z,21.63
2018-10-16T23:27:53.146Z,18.47
2018-10-16T23:30:21.828Z,26.90
2018-10-16T23:32:50.534Z,19.27
2018-10-16T23:35:19.189Z,29.23
2018-10-16T23:37:47.955Z,20.90
2018-10-16T23:40:16.600Z,26.97
2018-10-16T23:42:45.683Z,24.10
2018-10-16T23:45:14.324Z,24.90
2018-10-16T23:47:43.003Z,29.53
2018-10-16T23:50:11.684Z,24.83
2018-10-16T23:52:40.360Z,26.80
2018-10-16T23:55:10.078Z,22.13
2018-10-16T23:57:38.803Z,20.80
